createdAt,value
2018-07-08T00:01:06.575Z,19.47
2018-07-08T00:03:34.515Z,19.46
2018-07-08T00:06:02.599Z,19.35
2018-07-08T00:08:30.525Z,19.24
2018-07-08T00:10:59.464Z,19.14
2018-07-08T00:13:27.580Z,19.09
2018-07-08T00:15:55.711Z,18.97
2018-07-08T00:18:24.456Z,18.85
2018-07-08T00:20:53.803Z,18.76
2018-07-08T00:23:22.640Z,18.70
2018-07-08T00:25:50.750Z,18.63
2018-07-08T00:28:19.052Z,18.64
2018-07-08T00:30:47.118Z,18.54
2018-07-08T00:33:15.265Z,18.57
2018-07-08T00:35:43.310Z,18.55
2018-07-08T00:38:11.351Z,18.57
2018-07-08T00:40:39.343Z,18.60
2018-07-08T00:43:08.298Z,18.60
2018-07-08T00:45:36.286Z,18.73
2018-07-08T00:48:04.267Z,18.80
2018-07-08T00:50:32.646Z,18.66
2018-07-08T00:53:00.709Z,18.43
2018-07-08T00:55:28.774Z,18.29
2018-07-08T00:57:56.729Z,18.19
2018-07-08T01:00:32.337Z,18.22
2018-07-08T01:03:01.456Z,18.32
2018-07-08T01:05:29.710Z,18.25
2018-07-08T01:07:57.890Z,18.21
2018-07-08T01:10:26.176Z,18.11
2018-07-08T01:12:54.145Z,17.93
2018-07-08T01:15:22.322Z,18.02
2018-07-08T01:17:50.230Z,17.95
2018-07-08T01:20:18.257Z,17.94
2018-07-08T01:22:46.228Z,18.01
2018-07-08T01:25:15.406Z,18.06
2018-07-08T01:27:43.463Z,18.16
2018-07-08T01:30:12.766Z,18.08
2018-07-08T01:32:40.746Z,18.18
2018-07-08T01:35:08.730Z,18.28
2018-07-08T01:37:36.649Z,18.16
2018-07-08T01:40:05.300Z,18.08
2018-07-08T01:42:33.275Z,17.96
2018-07-08T01:45:01.416Z,17.89
2018-07-08T01:47:29.344Z,17.92
2018-07-08T01:49:57.281Z,17.88
2018-07-08T01:52:25.901Z,17.80
2018-07-08T01:54:55.056Z,17.81
2018-07-08T01:57:24.110Z,17.74
2018-07-08T01:59:52.614Z,17.72
2018-07-08T02:02:21.220Z,17.67
2018-07-08T02:04:50.150Z,17.69
2018-07-08T02:07:18.275Z,17.70
2018-07-08T02:09:46.838Z,17.69
2018-07-08T02:12:15.014Z,17.62
2018-07-08T02:14:43.581Z,17.60
2018-07-08T02:17:11.565Z,17.58
2018-07-08T02:19:39.576Z,17.71
2018-07-08T02:22:08.108Z,17.83
2018-07-08T02:24:36.034Z,17.92
2018-07-08T02:27:04.309Z,17.87
2018-07-08T02:29:32.867Z,17.84
2018-07-08T02:32:00.959Z,17.81
2018-07-08T02:34:28.979Z,17.91
2018-07-08T02:36:56.965Z,17.86
2018-07-08T02:39:24.880Z,17.70
2018-07-08T02:41:53.076Z,17.72
2018-07-08T02:44:21.068Z,17.72
2018-07-08T02:46:49.215Z,17.83
2018-07-08T02:49:18.044Z,17.80
2018-07-08T02:51:46.800Z,17.70
2018-07-08T02:54:14.722Z,17.76
2018-07-08T02:56:42.614Z,17.81
2018-07-08T02:59:10.581Z,17.82
2018-07-08T03:01:38.442Z,17.87
2018-07-08T03:04:06.466Z,17.90
2018-07-08T03:06:34.579Z,17.95
2018-07-08T03:09:02.822Z,17.96
2018-07-08T03:11:30.803Z,17.94
2018-07-08T03:13:58.746Z,17.92
2018-07-08T03:16:26.723Z,17.97
2018-07-08T03:18:54.722Z,18.07
2018-07-08T03:21:22.667Z,18.05
2018-07-08T03:23:50.681Z,18.02
2018-07-08T03:26:18.739Z,18.06
2018-07-08T03:28:46.689Z,18.04
2018-07-08T03:31:14.648Z,18.02
2018-07-08T03:33:42.534Z,18.10
2018-07-08T03:36:10.504Z,18.16
2018-07-08T03:38:38.472Z,18.17
2018-07-08T03:41:06.414Z,18.22
2018-07-08T03:43:34.379Z,18.22
2018-07-08T03:46:02.463Z,18.20
2018-07-08T03:48:30.405Z,18.27
2018-07-08T03:50:58.395Z,18.31
2018-07-08T03:53:26.357Z,18.28
2018-07-08T03:55:54.277Z,18.33
2018-07-08T03:58:22.235Z,18.41
2018-07-08T04:00:50.583Z,18.43
2018-07-08T04:03:18.469Z,18.49
2018-07-08T04:05:46.379Z,18.49
2018-07-08T04:08:14.431Z,18.51
2018-07-08T04:10:42.355Z,18.43
2018-07-08T04:13:10.230Z,18.33
2018-07-08T04:15:38.861Z,18.34
2018-07-08T04:18:08.746Z,18.42
2018-07-08T04:20:38.013Z,18.48
2018-07-08T04:23:05.977Z,18.56
2018-07-08T04:25:34.170Z,18.58
2018-07-08T04:28:04.239Z,18.66
2018-07-08T04:30:32.465Z,18.58
2018-07-08T04:33:00.804Z,18.62
2018-07-08T04:35:28.806Z,18.73
2018-07-08T04:37:57.477Z,18.74
2018-07-08T04:40:25.427Z,18.74
2018-07-08T04:42:53.472Z,18.82
2018-07-08T04:45:21.638Z,18.85
2018-07-08T04:47:49.554Z,18.85
2018-07-08T04:50:17.458Z,18.93
2018-07-08T04:52:45.496Z,18.89
2018-07-08T04:55:13.501Z,18.89
2018-07-08T04:57:41.427Z,18.93
2018-07-08T05:00:09.410Z,18.99
2018-07-08T05:02:37.413Z,18.96
2018-07-08T05:05:05.486Z,19.05
2018-07-08T05:07:33.517Z,19.03
2018-07-08T05:10:01.476Z,19.04
2018-07-08T05:12:29.409Z,19.09
2018-07-08T05:14:57.411Z,19.20
2018-07-08T05:17:25.369Z,19.20
2018-07-08T05:19:53.256Z,19.33
2018-07-08T05:22:21.220Z,19.32
2018-07-08T05:24:49.169Z,19.40
2018-07-08T05:27:17.214Z,19.39
2018-07-08T05:29:45.105Z,19.42
2018-07-08T05:32:13.137Z,19.43
2018-07-08T05:34:41.090Z,19.30
2018-07-08T05:37:09.767Z,19.30
2018-07-08T05:39:37.843Z,19.24
2018-07-08T05:42:06.161Z,19.24
2018-07-08T05:44:34.129Z,19.23
2018-07-08T05:47:02.340Z,19.05
2018-07-08T05:49:30.718Z,19.05
2018-07-08T05:51:58.684Z,18.99
2018-07-08T05:54:26.664Z,19.03
2018-07-08T05:56:54.650Z,19.05
2018-07-08T05:59:22.602Z,19.06
2018-07-08T06:01:51.605Z,19.04
2018-07-08T06:04:19.606Z,19.12
2018-07-08T06:06:47.648Z,19.20
2018-07-08T06:09:15.716Z,19.24
2018-07-08T06:11:43.647Z,19.26
2018-07-08T06:14:11.809Z,19.32
2018-07-08T06:16:39.753Z,19.36
2018-07-08T06:19:07.695Z,19.37
2018-07-08T06:21:35.697Z,19.44
2018-07-08T06:24:04.070Z,19.43
2018-07-08T06:26:32.474Z,19.48
2018-07-08T06:29:00.498Z,19.54
2018-07-08T06:31:28.573Z,19.55
2018-07-08T06:33:56.796Z,19.55
2018-07-08T06:36:24.868Z,19.67
2018-07-08T06:38:52.968Z,19.67
2018-07-08T06:41:20.919Z,19.61
2018-07-08T06:43:49.394Z,19.63
2018-07-08T06:46:17.980Z,19.64
2018-07-08T06:48:45.994Z,19.60
2018-07-08T06:51:14.204Z,19.67
2018-07-08T06:53:42.223Z,19.67
2018-07-08T06:56:10.228Z,19.72
2018-07-08T06:58:38.204Z,19.71
2018-07-08T07:01:06.637Z,19.71
2018-07-08T07:03:34.594Z,19.79
2018-07-08T07:06:02.604Z,19.79
2018-07-08T07:08:30.561Z,19.87
2018-07-08T07:10:58.600Z,19.92
2018-07-08T07:13:26.487Z,19.82
2018-07-08T07:15:54.446Z,19.80
2018-07-08T07:18:22.481Z,19.74
2018-07-08T07:20:50.380Z,19.70
2018-07-08T07:23:18.315Z,19.66
2018-07-08T07:25:46.203Z,19.65
2018-07-08T07:28:14.265Z,19.69
2018-07-08T07:30:42.239Z,19.68
2018-07-08T07:33:10.188Z,19.69
2018-07-08T07:35:38.162Z,19.80
2018-07-08T07:38:06.296Z,19.87
2018-07-08T07:40:34.303Z,19.90
2018-07-08T07:43:02.273Z,19.92
2018-07-08T07:45:30.347Z,19.99
2018-07-08T07:47:58.373Z,19.91
2018-07-08T07:50:26.348Z,19.51
2018-07-08T07:52:54.194Z,19.11
2018-07-08T07:55:22.132Z,18.99
2018-07-08T07:57:50.030Z,18.95
2018-07-08T08:00:17.934Z,18.81
2018-07-08T08:02:45.883Z,18.82
2018-07-08T08:05:13.764Z,18.87
2018-07-08T08:07:41.746Z,18.82
2018-07-08T08:10:09.784Z,18.88
2018-07-08T08:12:37.759Z,18.91
2018-07-08T08:15:05.724Z,18.88
2018-07-08T08:17:33.780Z,18.94
2018-07-08T08:20:01.899Z,19.01
2018-07-08T08:22:29.824Z,18.99
2018-07-08T08:24:57.848Z,18.95
2018-07-08T08:27:25.846Z,19.04
2018-07-08T08:29:53.882Z,18.93
2018-07-08T08:32:21.883Z,19.01
2018-07-08T08:35:22.858Z,19.05
2018-07-08T08:37:53.014Z,19.10
2018-07-08T08:40:22.212Z,19.15
2018-07-08T08:42:50.206Z,19.27
2018-07-08T08:45:19.085Z,19.37
2018-07-08T08:47:47.552Z,19.50
2018-07-08T08:50:15.949Z,19.43
2018-07-08T08:52:43.947Z,19.52
2018-07-08T08:55:12.423Z,19.53
2018-07-08T08:57:40.396Z,19.62
2018-07-08T09:00:16.922Z,19.72
2018-07-08T09:02:44.983Z,19.68
2018-07-08T09:05:13.063Z,19.80
2018-07-08T09:07:41.065Z,19.86
2018-07-08T09:10:09.338Z,19.96
2018-07-08T09:12:38.501Z,20.03
2018-07-08T09:15:06.620Z,20.03
2018-07-08T09:17:34.578Z,20.03
2018-07-08T09:20:02.508Z,20.10
2018-07-08T09:22:30.454Z,20.14
2018-07-08T09:25:00.178Z,20.14
2018-07-08T09:27:28.109Z,20.23
2018-07-08T09:29:56.266Z,20.38
2018-07-08T09:32:25.482Z,20.39
2018-07-08T09:34:54.149Z,20.41
2018-07-08T09:37:22.325Z,20.56
2018-07-08T09:39:50.383Z,20.57
2018-07-08T09:42:18.487Z,20.52
2018-07-08T09:44:46.601Z,20.52
2018-07-08T09:47:14.699Z,20.54
2018-07-08T09:49:46.699Z,20.64
2018-07-08T09:52:14.758Z,20.68
2018-07-08T09:54:42.684Z,20.59
2018-07-08T09:57:10.688Z,20.44
2018-07-08T09:59:38.675Z,20.32
2018-07-08T10:02:07.945Z,20.15
2018-07-08T10:04:36.105Z,19.76
2018-07-08T10:07:04.488Z,19.68
2018-07-08T10:09:32.603Z,19.81
2018-07-08T10:12:00.570Z,19.78
2018-07-08T10:14:28.705Z,19.84
2018-07-08T10:16:56.787Z,19.96
2018-07-08T10:19:25.027Z,20.03
2018-07-08T10:21:53.051Z,20.12
2018-07-08T10:24:21.318Z,20.26
2018-07-08T10:27:32.626Z,20.55
2018-07-08T10:30:03.717Z,20.72
2018-07-08T10:32:32.515Z,21.03
2018-07-08T10:35:00.678Z,21.25
2018-07-08T10:37:28.744Z,21.40
2018-07-08T10:39:57.291Z,21.73
2018-07-08T10:42:25.706Z,22.22
2018-07-08T10:44:55.268Z,22.59
2018-07-08T10:47:23.316Z,22.94
2018-07-08T10:49:51.454Z,23.22
2018-07-08T10:54:58.690Z,23.54
2018-07-08T10:57:26.734Z,23.72
2018-07-08T11:00:01.034Z,24.11
2018-07-08T11:02:28.994Z,24.29
2018-07-08T11:04:56.999Z,24.58
2018-07-08T11:07:25.433Z,25.00
2018-07-08T11:09:53.863Z,25.27
2018-07-08T11:12:22.514Z,25.57
2018-07-08T11:14:50.644Z,25.90
2018-07-08T11:17:18.626Z,26.21
2018-07-08T11:19:46.938Z,26.43
2018-07-08T11:22:15.219Z,26.58
2018-07-08T11:24:43.221Z,26.79
2018-07-08T11:27:11.151Z,26.94
2018-07-08T11:29:39.288Z,27.00
2018-07-08T11:32:07.437Z,26.87
2018-07-08T11:34:36.030Z,26.86
2018-07-08T11:37:04.208Z,26.68
2018-07-08T11:39:34.741Z,26.75
2018-07-08T11:42:02.729Z,26.81
2018-07-08T11:44:31.414Z,26.36
2018-07-08T11:46:59.682Z,26.04
2018-07-08T11:49:27.729Z,25.86
2018-07-08T11:51:56.241Z,26.29
2018-07-08T11:54:24.218Z,26.65
2018-07-08T11:56:52.930Z,26.77
2018-07-08T11:59:20.965Z,26.95
2018-07-08T12:01:48.977Z,26.96
2018-07-08T12:04:16.943Z,27.17
2018-07-08T12:06:45.200Z,27.43
2018-07-08T12:09:14.418Z,27.54
2018-07-08T12:11:42.390Z,27.88
2018-07-08T12:14:10.409Z,27.92
2018-07-08T12:16:38.502Z,27.67
2018-07-08T12:19:06.460Z,27.61
2018-07-08T12:21:34.437Z,27.66
2018-07-08T12:24:02.400Z,27.77
2018-07-08T12:26:30.517Z,27.89
2018-07-08T12:28:58.510Z,27.81
2018-07-08T12:31:26.471Z,27.84
2018-07-08T12:33:54.385Z,27.93
2018-07-08T12:36:22.712Z,27.74
2018-07-08T12:38:50.651Z,27.62
2018-07-08T12:41:18.576Z,27.94
2018-07-08T12:43:46.550Z,28.15
2018-07-08T12:46:14.515Z,28.28
2018-07-08T12:48:43.505Z,28.26
2018-07-08T12:51:11.489Z,28.04
2018-07-08T12:53:39.459Z,28.18
2018-07-08T12:56:07.441Z,29.04
2018-07-08T12:58:35.465Z,30.05
2018-07-08T13:01:03.463Z,30.56
2018-07-08T13:03:32.221Z,30.51
2018-07-08T13:06:00.274Z,30.65
2018-07-08T13:08:28.321Z,30.40
2018-07-08T13:10:56.394Z,30.15
2018-07-08T13:13:24.375Z,30.17
2018-07-08T13:15:52.299Z,29.60
2018-07-08T13:18:20.482Z,29.39
2018-07-08T13:20:48.755Z,29.46
2018-07-08T13:23:16.729Z,30.50
2018-07-08T13:25:44.644Z,31.31
2018-07-08T13:28:12.688Z,32.12
2018-07-08T13:30:40.688Z,32.10
2018-07-08T13:33:08.710Z,30.17
2018-07-08T13:35:36.860Z,29.80
2018-07-08T13:38:05.134Z,30.44
2018-07-08T13:40:33.204Z,30.69
2018-07-08T13:43:01.202Z,29.95
2018-07-08T13:45:29.198Z,29.67
2018-07-08T13:47:57.298Z,29.92
2018-07-08T13:50:25.293Z,30.22
2018-07-08T13:52:53.486Z,30.13
2018-07-08T13:55:21.606Z,30.18
2018-07-08T13:57:49.630Z,29.49
2018-07-08T14:00:17.696Z,29.62
2018-07-08T14:02:45.755Z,29.94
2018-07-08T14:05:13.781Z,29.98
2018-07-08T14:07:41.914Z,29.40
2018-07-08T14:10:09.881Z,29.97
2018-07-08T14:12:37.886Z,30.49
2018-07-08T14:15:05.896Z,30.85
2018-07-08T14:17:33.974Z,31.15
2018-07-08T14:20:02.116Z,31.08
2018-07-08T14:22:30.954Z,30.50
2018-07-08T14:24:59.125Z,29.80
2018-07-08T14:27:27.135Z,29.12
2018-07-08T14:29:55.721Z,28.44
2018-07-08T14:32:30.059Z,28.02
2018-07-08T14:34:58.359Z,27.44
2018-07-08T14:37:26.384Z,26.94
2018-07-08T14:39:55.293Z,26.44
2018-07-08T14:42:23.334Z,26.19
2018-07-08T14:44:55.216Z,25.98
2018-07-08T14:47:23.231Z,25.63
2018-07-08T14:49:51.763Z,25.43
2018-07-08T14:52:20.653Z,25.12
2018-07-08T14:54:49.000Z,25.10
2018-07-08T14:57:17.085Z,24.98
2018-07-08T14:59:45.262Z,24.76
2018-07-08T15:02:13.351Z,24.63
2018-07-08T15:04:43.208Z,24.58
2018-07-08T15:07:11.695Z,24.52
2018-07-08T15:09:40.429Z,24.42
2018-07-08T15:12:08.439Z,24.42
2018-07-08T15:14:36.490Z,24.32
2018-07-08T15:17:05.670Z,24.25
2018-07-08T15:19:33.721Z,24.30
2018-07-08T15:22:02.114Z,24.39
2018-07-08T15:24:30.134Z,24.28
2018-07-08T15:26:58.160Z,24.36
2018-07-08T15:29:26.202Z,24.34
2018-07-08T15:31:54.695Z,24.32
2018-07-08T15:34:22.971Z,24.26
2018-07-08T15:36:51.043Z,24.18
2018-07-08T15:39:19.091Z,24.12
2018-07-08T15:41:47.093Z,24.03
2018-07-08T15:44:15.016Z,23.96
2018-07-08T15:46:43.034Z,23.89
2018-07-08T15:49:11.164Z,23.86
2018-07-08T15:51:39.215Z,23.88
2018-07-08T15:54:07.520Z,23.79
2018-07-08T15:56:35.769Z,23.81
2018-07-08T15:59:03.820Z,23.89
2018-07-08T16:01:31.824Z,23.97
2018-07-08T16:03:59.951Z,23.98
2018-07-08T16:06:28.041Z,24.00
2018-07-08T16:08:56.104Z,24.00
2018-07-08T16:11:24.213Z,23.88
2018-07-08T16:13:52.638Z,23.91
2018-07-08T16:16:20.758Z,23.96
2018-07-08T16:18:48.770Z,23.93
2018-07-08T16:21:16.801Z,23.80
2018-07-08T16:23:44.876Z,23.64
2018-07-08T16:26:13.183Z,23.65
2018-07-08T16:28:41.407Z,23.52
2018-07-08T16:31:09.484Z,23.47
2018-07-08T16:33:37.577Z,23.40
2018-07-08T16:36:05.938Z,23.40
2018-07-08T16:38:34.115Z,23.31
2018-07-08T16:41:02.207Z,23.42
2018-07-08T16:43:30.276Z,23.46
2018-07-08T16:46:02.991Z,23.60
2018-07-08T16:48:31.858Z,23.63
2018-07-08T16:51:00.076Z,23.50
2018-07-08T16:53:28.217Z,23.51
2018-07-08T16:55:56.175Z,23.46
2018-07-08T16:58:24.489Z,23.39
2018-07-08T17:00:52.622Z,23.26
2018-07-08T17:03:20.794Z,23.25
2018-07-08T17:05:49.003Z,23.20
2018-07-08T17:08:18.429Z,23.25
2018-07-08T17:10:47.523Z,23.30
2018-07-08T17:13:15.542Z,23.30
2018-07-08T17:15:43.755Z,23.18
2018-07-08T17:18:12.167Z,23.14
2018-07-08T17:20:40.472Z,23.11
2018-07-08T17:23:08.550Z,23.03
2018-07-08T17:25:36.686Z,23.00
2018-07-08T17:28:04.900Z,22.99
2018-07-08T17:30:32.928Z,22.89
2018-07-08T17:33:02.630Z,22.83
2018-07-08T17:35:30.716Z,22.87
2018-07-08T17:37:58.868Z,22.90
2018-07-08T17:40:27.258Z,22.82
2018-07-08T17:42:55.844Z,22.85
2018-07-08T17:45:24.043Z,22.79
2018-07-08T17:47:52.340Z,22.73
2018-07-08T17:50:20.481Z,22.69
2018-07-08T17:52:49.860Z,22.67
2018-07-08T17:55:17.886Z,22.65
2018-07-08T17:57:46.135Z,22.74
2018-07-08T18:00:14.721Z,22.71
2018-07-08T18:02:42.947Z,22.71
2018-07-08T18:05:11.715Z,22.77
2018-07-08T18:07:39.941Z,22.74
2018-07-08T18:10:08.022Z,22.64
2018-07-08T18:12:36.255Z,22.69
2018-07-08T18:15:04.922Z,22.61
2018-07-08T18:17:32.976Z,22.44
2018-07-08T18:20:01.109Z,22.33
2018-07-08T18:22:29.210Z,22.29
2018-07-08T18:24:57.317Z,22.21
2018-07-08T18:27:25.510Z,22.07
2018-07-08T18:29:53.794Z,22.08
2018-07-08T18:32:21.936Z,22.00
2018-07-08T18:34:50.593Z,22.03
2018-07-08T18:37:18.668Z,22.03
2018-07-08T18:39:46.866Z,21.98
2018-07-08T18:42:15.055Z,21.92
2018-07-08T18:44:43.233Z,21.89
2018-07-08T18:47:11.595Z,21.95
2018-07-08T18:49:39.799Z,21.92
2018-07-08T18:52:07.943Z,21.85
2018-07-08T18:54:36.265Z,21.84
2018-07-08T18:57:04.392Z,21.88
2018-07-08T18:59:32.740Z,21.89
2018-07-08T19:02:01.017Z,21.92
2018-07-08T19:04:29.599Z,21.88
2018-07-08T19:06:57.725Z,22.03
2018-07-08T19:09:25.822Z,22.08
2018-07-08T19:11:54.049Z,22.12
2018-07-08T19:14:23.500Z,22.12
2018-07-08T19:16:51.962Z,22.13
2018-07-08T19:19:20.131Z,22.19
2018-07-08T19:21:49.362Z,22.16
2018-07-08T19:24:17.417Z,22.06
2018-07-08T19:26:45.590Z,22.03
2018-07-08T19:29:14.043Z,21.93
2018-07-08T19:31:43.084Z,21.92
2018-07-08T19:34:11.217Z,21.96
2018-07-08T19:36:39.397Z,22.00
2018-07-08T19:39:08.912Z,22.00
2018-07-08T19:41:39.427Z,21.93
2018-07-08T19:44:08.190Z,21.90
2018-07-08T19:46:36.766Z,21.79
2018-07-08T19:49:05.080Z,21.68
2018-07-08T19:51:33.461Z,21.58
2018-07-08T19:54:02.313Z,21.46
2018-07-08T19:56:30.491Z,21.42
2018-07-08T19:58:59.109Z,21.42
2018-07-08T20:01:28.055Z,21.42
2018-07-08T20:03:56.373Z,21.47
2018-07-08T20:06:24.723Z,21.33
2018-07-08T20:08:52.823Z,21.38
2018-07-08T20:11:22.571Z,21.48
2018-07-08T20:13:50.704Z,21.56
2018-07-08T20:16:19.820Z,21.53
2018-07-08T20:18:48.045Z,21.55
2018-07-08T20:21:16.261Z,21.55
2018-07-08T20:23:44.208Z,21.56
2018-07-08T20:26:12.634Z,21.67
2018-07-08T20:28:42.012Z,21.58
2018-07-08T20:31:10.030Z,21.54
2018-07-08T20:33:38.208Z,21.59
2018-07-08T20:36:06.730Z,21.49
2018-07-08T20:38:35.234Z,21.40
2018-07-08T20:41:03.360Z,21.29
2018-07-08T20:43:31.497Z,21.32
2018-07-08T20:45:59.595Z,21.26
2018-07-08T20:48:27.801Z,21.10
2018-07-08T20:50:55.932Z,21.16
2018-07-08T20:53:24.026Z,21.05
2018-07-08T20:55:52.049Z,20.94
2018-07-08T20:58:21.422Z,20.85
2018-07-08T21:00:49.625Z,20.84
2018-07-08T21:03:17.866Z,20.86
2018-07-08T21:05:45.914Z,20.83
2018-07-08T21:08:14.140Z,20.86
2018-07-08T21:10:42.361Z,20.85
2018-07-08T21:13:10.928Z,20.96
2018-07-08T21:15:38.925Z,20.94
2018-07-08T21:18:07.113Z,20.95
2018-07-08T21:20:35.198Z,20.97
2018-07-08T21:23:03.669Z,20.88
2018-07-08T21:25:31.824Z,20.87
2018-07-08T21:28:00.057Z,20.82
2018-07-08T21:30:28.583Z,20.87
2018-07-08T21:32:56.548Z,20.86
2018-07-08T21:35:24.769Z,20.86
2018-07-08T21:37:52.866Z,20.73
2018-07-08T21:40:20.978Z,20.53
2018-07-08T21:42:49.138Z,20.38
2018-07-08T21:45:17.216Z,20.24
2018-07-08T21:47:45.494Z,20.16
2018-07-08T21:50:13.556Z,20.04
2018-07-08T21:52:41.574Z,20.01
2018-07-08T21:55:09.642Z,19.97
2018-07-08T21:57:37.698Z,19.90
2018-07-08T22:00:06.532Z,19.85
2018-07-08T22:02:34.632Z,19.73
2018-07-08T22:05:02.813Z,19.62
2018-07-08T22:07:36.447Z,19.44
2018-07-08T22:10:05.031Z,19.39
2018-07-08T22:12:33.201Z,19.50
2018-07-08T22:15:01.290Z,19.38
2018-07-08T22:17:29.481Z,19.24
2018-07-08T22:19:57.585Z,19.17
2018-07-08T22:22:25.963Z,19.19
2018-07-08T22:24:54.020Z,19.15
2018-07-08T22:27:22.044Z,19.10
2018-07-08T22:29:50.134Z,19.11
2018-07-08T22:32:18.264Z,19.07
2018-07-08T22:34:46.538Z,19.09
2018-07-08T22:37:14.677Z,19.18
2018-07-08T22:39:42.684Z,19.16
2018-07-08T22:42:10.725Z,19.13
2018-07-08T22:44:38.826Z,18.93
2018-07-08T22:47:06.934Z,18.93
2018-07-08T22:49:35.026Z,18.86
2018-07-08T22:52:03.098Z,18.85
2018-07-08T22:54:31.157Z,18.82
2018-07-08T22:56:59.247Z,18.87
2018-07-08T22:59:27.352Z,18.90
2018-07-08T23:02:06.917Z,18.86
2018-07-08T23:04:34.998Z,18.74
2018-07-08T23:07:03.121Z,18.71
2018-07-08T23:09:31.778Z,18.76
2018-07-08T23:11:59.860Z,18.80
2018-07-08T23:14:28.004Z,18.82
2018-07-08T23:16:56.224Z,18.82
2018-07-08T23:19:24.379Z,18.91
2018-07-08T23:21:52.424Z,18.91
2018-07-08T23:24:20.935Z,18.97
2018-07-08T23:26:49.066Z,18.95
2018-07-08T23:29:17.152Z,18.85
2018-07-08T23:31:45.263Z,18.75
2018-07-08T23:34:13.355Z,18.75
2018-07-08T23:36:41.519Z,18.82
2018-07-08T23:39:09.511Z,18.86
2018-07-08T23:41:37.734Z,18.80
2018-07-08T23:44:05.743Z,18.73
2018-07-08T23:46:34.324Z,18.79
2018-07-08T23:49:02.372Z,18.75
2018-07-08T23:51:30.389Z,18.74
2018-07-08T23:53:58.434Z,18.78
2018-07-08T23:56:26.548Z,18.76
2018-07-08T23:58:54.691Z,18.75
